Time;durP1;ratioP1;P1;durP2;ratioP2;P2;SDS_P1;SDS_P2;PMS_P1;PMS_P2;Temp;Humidity;BMP_temperature;BMP_pressure;BME280_temperature;BME280_humidity;BME280_pressure;Samples;Min_cycle;Max_cycle;Signal;HPM_P1;HPM_P2
2023/05/17 00:00:42;;;;;;;9.00;4.80;;;;;;;;;;5036894;28;20522;-83
2023/05/17 00:03:07;;;;;;;7.22;4.32;;;;;;;;;;5032620;28;20033;-83
2023/05/17 00:05:33;;;;;;;12.32;4.85;;;;;;;;;;5037949;28;20397;-81
2023/05/17 00:07:58;;;;;;;8.55;5.10;;;;;;;;;;5025756;28;20563;-81
2023/05/17 00:10:24;;;;;;;10.75;4.90;;;;;;;;;;5029865;28;20057;-82
2023/05/17 00:12:49;;;;;;;10.60;5.00;;;;;;;;;;5026735;28;20037;-81
2023/05/17 00:15:14;;;;;;;9.80;5.00;;;;;;;;;;5029524;28;20053;-82
2023/05/17 00:17:40;;;;;;;8.55;4.43;;;;;;;;;;5035793;28;20056;-82
2023/05/17 00:20:05;;;;;;;9.55;4.60;;;;;;;;;;5029469;28;20039;-81
2023/05/17 00:22:31;;;;;;;13.52;4.43;;;;;;;;;;5030984;28;20033;-82
2023/05/17 00:24:56;;;;;;;11.88;4.45;;;;;;;;;;5028474;28;20125;-80
2023/05/17 00:27:22;;;;;;;7.85;4.72;;;;;;;;;;5028987;28;20048;-80
2023/05/17 00:29:47;;;;;;;4.60;4.10;;;;;;;;;;5026880;28;20176;-80
2023/05/17 00:32:12;;;;;;;8.48;3.97;;;;;;;;;;5035551;28;20036;-80
2023/05/17 00:34:37;;;;;;;11.05;4.65;;;;;;;;;;5026749;28;20036;-80
2023/05/17 00:37:03;;;;;;;9.38;4.35;;;;;;;;;;5027629;28;20040;-80
2023/05/17 00:39:28;;;;;;;9.55;4.20;;;;;;;;;;5025526;28;20112;-80
2023/05/17 00:41:54;;;;;;;6.43;4.72;;;;;;;;;;5026674;28;20042;-80
2023/05/17 00:44:19;;;;;;;14.68;5.32;;;;;;;;;;5024044;28;20034;-80
2023/05/17 00:46:45;;;;;;;8.43;4.80;;;;;;;;;;5030037;28;20045;-81
2023/05/17 00:49:11;;;;;;;8.18;4.88;;;;;;;;;;5026529;28;20113;-80
2023/05/17 00:51:36;;;;;;;13.88;6.05;;;;;;;;;;5027487;28;20496;-80
2023/05/17 00:54:03;;;;;;;10.73;5.47;;;;;;;;;;5026896;28;20053;-81
2023/05/17 00:56:30;;;;;;;10.57;5.72;;;;;;;;;;5028727;28;20037;-80
2023/05/17 00:58:55;;;;;;;6.05;5.07;;;;;;;;;;5024972;28;20037;-83
2023/05/17 01:01:21;;;;;;;10.23;5.68;;;;;;;;;;5029901;28;20091;-81
2023/05/17 01:03:46;;;;;;;9.18;5.53;;;;;;;;;;5025527;28;20033;-81
2023/05/17 01:06:11;;;;;;;15.95;6.32;;;;;;;;;;5025524;28;20056;-80
2023/05/17 01:08:37;;;;;;;10.25;6.00;;;;;;;;;;5030716;28;20021;-81
2023/05/17 01:11:21;;;;;;;18.13;5.88;;;;;;;;;;5027037;28;20033;-81
2023/05/17 01:14:04;;;;;;;12.32;6.65;;;;;;;;;;5032910;28;20051;-81
2023/05/17 01:16:41;;;;;;;13.70;7.03;;;;;;;;;;5040410;28;20037;-81
2023/05/17 01:19:16;;;;;;;10.25;5.85;;;;;;;;;;5028302;28;20037;-80
2023/05/17 01:22:03;;;;;;;9.20;5.70;;;;;;;;;;5026508;28;20034;-81
2023/05/17 01:24:37;;;;;;;13.95;6.03;;;;;;;;;;5028503;28;20034;-81
2023/05/17 01:27:04;;;;;;;12.43;6.80;;;;;;;;;;5023947;28;20018;-80
2023/05/17 01:29:32;;;;;;;10.30;6.57;;;;;;;;;;5029223;28;20384;-81
2023/05/17 01:31:58;;;;;;;7.72;5.60;;;;;;;;;;5023877;28;20030;-80
2023/05/17 01:34:25;;;;;;;15.93;5.90;;;;;;;;;;5027234;28;20040;-81
2023/05/17 01:36:50;;;;;;;17.05;6.28;;;;;;;;;;5027569;28;20419;-81
2023/05/17 01:39:16;;;;;;;8.77;5.75;;;;;;;;;;5025320;28;20022;-81
2023/05/17 01:41:45;;;;;;;9.02;5.55;;;;;;;;;;5032080;28;20056;-81
2023/05/17 01:44:31;;;;;;;11.65;6.15;;;;;;;;;;5029246;28;20029;-80
2023/05/17 01:47:08;;;;;;;10.07;6.55;;;;;;;;;;5030963;28;20041;-81
2023/05/17 01:49:37;;;;;;;11.40;6.53;;;;;;;;;;5023922;28;20080;-81
2023/05/17 01:52:20;;;;;;;20.00;6.65;;;;;;;;;;5043166;28;20038;-81
2023/05/17 01:54:54;;;;;;;13.20;6.30;;;;;;;;;;5026927;28;20048;-81
2023/05/17 01:57:26;;;;;;;9.82;6.10;;;;;;;;;;5028008;28;20041;-81
2023/05/17 01:59:54;;;;;;;10.93;6.88;;;;;;;;;;5026272;28;20021;-81
2023/05/17 02:02:21;;;;;;;9.38;6.40;;;;;;;;;;5029496;28;20057;-81
2023/05/17 02:04:47;;;;;;;10.95;6.03;;;;;;;;;;5032439;28;20036;-81
2023/05/17 02:07:12;;;;;;;14.88;6.65;;;;;;;;;;5020411;28;20121;-81
2023/05/17 02:09:37;;;;;;;12.55;6.82;;;;;;;;;;5023141;28;20041;-81
2023/05/17 02:12:03;;;;;;;13.50;6.15;;;;;;;;;;5029081;28;20466;-82
2023/05/17 02:14:28;;;;;;;12.80;6.72;;;;;;;;;;5023330;28;20048;-81
2023/05/17 02:16:54;;;;;;;9.52;6.10;;;;;;;;;;5021380;28;20132;-81
2023/05/17 02:19:19;;;;;;;12.18;6.07;;;;;;;;;;5025251;28;20033;-82
2023/05/17 02:21:44;;;;;;;14.10;6.45;;;;;;;;;;5026802;28;20030;-82
2023/05/17 02:24:10;;;;;;;18.60;6.93;;;;;;;;;;5025857;28;20013;-82
2023/05/17 02:26:35;;;;;;;11.02;6.70;;;;;;;;;;5027480;28;20022;-82
2023/05/17 02:29:00;;;;;;;12.35;7.15;;;;;;;;;;5026487;28;20029;-81
2023/05/17 02:31:26;;;;;;;17.70;6.55;;;;;;;;;;5025808;28;20132;-81
2023/05/17 02:33:54;;;;;;;10.82;6.05;;;;;;;;;;5031612;28;20045;-81
2023/05/17 02:36:20;;;;;;;13.98;5.97;;;;;;;;;;5040469;28;20021;-81
2023/05/17 02:38:45;;;;;;;12.10;5.53;;;;;;;;;;5026518;28;20376;-81
2023/05/17 02:41:10;;;;;;;8.73;5.20;;;;;;;;;;5025002;28;20033;-81
2023/05/17 02:43:36;;;;;;;8.02;5.07;;;;;;;;;;5026219;28;20076;-82
2023/05/17 02:46:01;;;;;;;14.23;5.75;;;;;;;;;;5022731;28;20106;-81
2023/05/17 02:48:26;;;;;;;22.65;4.88;;;;;;;;;;5025513;28;20103;-82
2023/05/17 02:50:52;;;;;;;9.80;5.00;;;;;;;;;;5025397;28;20036;-81
2023/05/17 02:53:17;;;;;;;15.75;5.45;;;;;;;;;;5023697;28;20115;-81
2023/05/17 02:55:42;;;;;;;7.20;4.70;;;;;;;;;;5024677;28;20040;-81
2023/05/17 02:58:08;;;;;;;14.02;4.90;;;;;;;;;;5023840;28;20029;-81
2023/05/17 03:00:33;;;;;;;6.70;4.05;;;;;;;;;;5046738;28;20511;-81
2023/05/17 03:02:58;;;;;;;10.27;4.78;;;;;;;;;;5028739;28;20522;-82
2023/05/17 03:05:24;;;;;;;10.88;4.75;;;;;;;;;;5027812;28;20037;-81
2023/05/17 03:07:49;;;;;;;13.30;5.05;;;;;;;;;;5036846;28;20454;-81
2023/05/17 03:10:15;;;;;;;12.75;5.00;;;;;;;;;;5028643;28;20037;-81
2023/05/17 03:12:41;;;;;;;14.65;5.10;;;;;;;;;;5028567;28;20035;-81
2023/05/17 03:15:06;;;;;;;10.07;4.60;;;;;;;;;;5025031;28;20018;-82
2023/05/17 03:17:32;;;;;;;12.88;5.15;;;;;;;;;;5027668;28;20029;-81
2023/05/17 03:19:57;;;;;;;11.23;5.20;;;;;;;;;;5028551;28;20069;-81
2023/05/17 03:22:22;;;;;;;12.10;5.25;;;;;;;;;;5026896;28;20060;-82
2023/05/17 03:24:48;;;;;;;7.03;5.07;;;;;;;;;;5031613;28;20029;-81
2023/05/17 03:27:13;;;;;;;11.00;5.25;;;;;;;;;;5028491;28;20029;-80
2023/05/17 03:29:38;;;;;;;9.32;4.82;;;;;;;;;;5030845;28;20033;-81
2023/05/17 03:32:04;;;;;;;10.05;4.95;;;;;;;;;;5028940;28;20048;-81
2023/05/17 03:34:29;;;;;;;9.35;4.80;;;;;;;;;;5029639;28;20049;-81
2023/05/17 03:36:55;;;;;;;10.73;4.35;;;;;;;;;;5024999;28;20077;-81
2023/05/17 03:39:20;;;;;;;18.52;4.95;;;;;;;;;;5027649;28;20480;-81
2023/05/17 03:41:45;;;;;;;10.45;4.88;;;;;;;;;;5026417;28;20033;-81
2023/05/17 03:44:11;;;;;;;9.18;4.88;;;;;;;;;;5028509;28;20053;-81
2023/05/17 03:46:36;;;;;;;9.63;5.07;;;;;;;;;;5028550;28;20034;-81
2023/05/17 03:49:01;;;;;;;9.05;4.32;;;;;;;;;;5028743;28;20088;-81
2023/05/17 03:51:27;;;;;;;10.23;4.72;;;;;;;;;;5025686;28;20049;-82
2023/05/17 03:54:00;;;;;;;10.60;4.88;;;;;;;;;;5030740;28;20033;-81
2023/05/17 03:56:25;;;;;;;6.80;4.38;;;;;;;;;;5031815;28;20116;-81
2023/05/17 03:58:51;;;;;;;9.63;3.95;;;;;;;;;;5030158;28;20062;-81
2023/05/17 04:01:16;;;;;;;6.82;4.32;;;;;;;;;;5026104;28;20041;-81
2023/05/17 04:03:41;;;;;;;6.15;3.60;;;;;;;;;;5027982;28;20041;-81
2023/05/17 04:06:07;;;;;;;11.23;4.63;;;;;;;;;;5026151;28;20025;-82
2023/05/17 04:08:33;;;;;;;15.63;4.25;;;;;;;;;;5034978;28;20083;-81
2023/05/17 04:11:08;;;;;;;9.00;4.18;;;;;;;;;;5029295;28;20045;-81
2023/05/17 04:13:34;;;;;;;7.50;4.00;;;;;;;;;;5029248;28;20056;-81
2023/05/17 04:15:59;;;;;;;8.48;3.63;;;;;;;;;;5033089;28;20621;-82
2023/05/17 04:18:24;;;;;;;4.32;3.13;;;;;;;;;;5029019;28;20041;-82
2023/05/17 04:20:50;;;;;;;4.47;3.38;;;;;;;;;;5029036;28;20013;-82
2023/05/17 04:23:15;;;;;;;9.93;3.50;;;;;;;;;;5026749;28;20034;-82
2023/05/17 04:25:41;;;;;;;7.85;3.13;;;;;;;;;;5030312;28;20040;-82
2023/05/17 04:28:06;;;;;;;10.50;3.40;;;;;;;;;;5042015;28;20033;-82
2023/05/17 04:30:31;;;;;;;3.92;3.20;;;;;;;;;;5029857;28;20073;-81
2023/05/17 04:32:57;;;;;;;9.30;3.65;;;;;;;;;;5035755;28;20044;-83
2023/05/17 04:35:22;;;;;;;8.35;3.17;;;;;;;;;;5029203;28;20049;-82
2023/05/17 04:37:48;;;;;;;5.40;3.42;;;;;;;;;;5034322;28;20053;-82
2023/05/17 04:40:13;;;;;;;9.30;3.45;;;;;;;;;;5027483;28;20044;-82
2023/05/17 04:42:39;;;;;;;3.85;2.78;;;;;;;;;;5025804;28;20029;-82
2023/05/17 04:45:04;;;;;;;9.35;2.90;;;;;;;;;;5029741;28;20024;-82
2023/05/17 04:47:30;;;;;;;6.20;3.22;;;;;;;;;;5035176;28;20054;-82
2023/05/17 04:49:55;;;;;;;4.82;2.35;;;;;;;;;;5028221;28;20028;-82
2023/05/17 04:52:21;;;;;;;6.72;2.72;;;;;;;;;;5038668;28;20608;-82
2023/05/17 04:54:46;;;;;;;10.32;2.78;;;;;;;;;;5039765;28;20423;-82
2023/05/17 04:57:11;;;;;;;6.38;2.50;;;;;;;;;;5040229;28;20025;-82
2023/05/17 04:59:37;;;;;;;5.47;3.22;;;;;;;;;;5028392;28;20052;-82
2023/05/17 05:02:02;;;;;;;5.35;2.65;;;;;;;;;;5031447;28;20052;-83
2023/05/17 05:04:27;;;;;;;5.32;2.67;;;;;;;;;;5030832;28;20068;-83
2023/05/17 05:06:52;;;;;;;10.98;2.17;;;;;;;;;;5032232;28;20434;-82
2023/05/17 05:09:18;;;;;;;6.30;2.63;;;;;;;;;;5028472;28;20816;-82
2023/05/17 05:11:43;;;;;;;4.15;1.92;;;;;;;;;;5027176;28;20026;-83
2023/05/17 05:14:08;;;;;;;6.05;2.08;;;;;;;;;;5027916;28;20112;-83
2023/05/17 05:16:35;;;;;;;7.57;2.35;;;;;;;;;;5025731;28;20504;-82
2023/05/17 05:19:00;;;;;;;4.93;2.08;;;;;;;;;;5029940;28;20037;-82
2023/05/17 05:21:25;;;;;;;8.80;2.15;;;;;;;;;;5024894;28;20040;-82
2023/05/17 05:23:51;;;;;;;5.60;2.10;;;;;;;;;;5028898;28;20025;-82
2023/05/17 05:26:16;;;;;;;9.18;2.45;;;;;;;;;;5028872;28;20029;-82
2023/05/17 05:28:41;;;;;;;3.13;1.73;;;;;;;;;;5028783;28;20050;-82
2023/05/17 05:31:06;;;;;;;9.27;1.70;;;;;;;;;;5029190;28;20036;-82
2023/05/17 05:33:32;;;;;;;6.05;1.80;;;;;;;;;;5025396;28;20084;-82
2023/05/17 05:35:57;;;;;;;4.28;1.80;;;;;;;;;;5031523;28;20389;-82
2023/05/17 05:38:23;;;;;;;4.57;1.60;;;;;;;;;;5026271;28;20656;-82
2023/05/17 05:40:48;;;;;;;3.63;1.63;;;;;;;;;;5024534;28;20077;-82
2023/05/17 05:43:14;;;;;;;10.80;2.25;;;;;;;;;;5024999;28;20099;-82
2023/05/17 05:45:44;;;;;;;4.20;1.70;;;;;;;;;;5025131;28;20073;-82
2023/05/17 05:48:13;;;;;;;5.07;1.83;;;;;;;;;;5026427;28;20040;-82
2023/05/17 05:50:40;;;;;;;5.35;1.77;;;;;;;;;;5026002;28;20028;-81
2023/05/17 05:53:05;;;;;;;2.47;1.63;;;;;;;;;;5025036;28;20058;-82
2023/05/17 05:55:31;;;;;;;5.38;1.88;;;;;;;;;;5020255;28;20052;-82
2023/05/17 05:57:56;;;;;;;6.10;1.60;;;;;;;;;;5027228;28;20040;-81
2023/05/17 06:00:21;;;;;;;5.15;1.77;;;;;;;;;;5024475;28;20135;-82
2023/05/17 06:02:47;;;;;;;7.25;1.70;;;;;;;;;;5025207;28;20120;-81
2023/05/17 06:05:12;;;;;;;8.82;1.90;;;;;;;;;;5036013;28;20669;-82
2023/05/17 06:07:37;;;;;;;11.45;2.58;;;;;;;;;;5026220;28;20033;-81
2023/05/17 06:10:02;;;;;;;5.25;1.92;;;;;;;;;;5024288;28;20491;-81
2023/05/17 06:12:28;;;;;;;8.00;1.80;;;;;;;;;;5023971;28;20034;-81
2023/05/17 06:14:53;;;;;;;3.67;1.67;;;;;;;;;;5021943;28;20030;-81
2023/05/17 06:17:20;;;;;;;1.60;1.50;;;;;;;;;;5022880;28;20033;-80
2023/05/17 06:19:45;;;;;;;4.40;2.10;;;;;;;;;;5023051;28;20037;-81
2023/05/17 06:22:10;;;;;;;3.38;1.80;;;;;;;;;;5024395;28;20037;-81
2023/05/17 06:24:36;;;;;;;5.78;1.90;;;;;;;;;;5052847;28;20061;-80
2023/05/17 06:27:01;;;;;;;4.15;2.10;;;;;;;;;;5023012;28;20033;-81
2023/05/17 06:29:26;;;;;;;7.55;2.38;;;;;;;;;;5019262;28;20061;-78
2023/05/17 06:31:52;;;;;;;3.65;1.63;;;;;;;;;;5021160;28;20060;-81
2023/05/17 06:34:17;;;;;;;3.22;1.60;;;;;;;;;;5022499;28;20038;-81
2023/05/17 06:36:42;;;;;;;1.60;1.50;;;;;;;;;;5025937;28;20554;-82
2023/05/17 06:39:08;;;;;;;7.30;2.15;;;;;;;;;;5026840;28;20056;-80
2023/05/17 06:41:33;;;;;;;6.82;2.10;;;;;;;;;;5032020;28;20162;-82
2023/05/17 06:43:59;;;;;;;8.88;2.00;;;;;;;;;;5026917;28;20056;-80
2023/05/17 06:46:24;;;;;;;3.58;1.98;;;;;;;;;;5026390;28;20034;-81
2023/05/17 06:48:49;;;;;;;4.40;2.33;;;;;;;;;;5028048;28;20042;-81
2023/05/17 06:51:15;;;;;;;9.57;2.00;;;;;;;;;;5027830;28;20061;-81
2023/05/17 06:53:40;;;;;;;2.42;1.80;;;;;;;;;;5025280;28;20408;-80
2023/05/17 06:56:06;;;;;;;7.25;2.20;;;;;;;;;;5026237;28;20045;-80
2023/05/17 06:58:31;;;;;;;2.30;2.00;;;;;;;;;;5036719;28;20347;-81
2023/05/17 07:00:56;;;;;;;4.07;1.85;;;;;;;;;;5026861;28;20030;-81
2023/05/17 07:03:22;;;;;;;3.88;1.88;;;;;;;;;;5024711;28;20514;-81
2023/05/17 07:05:47;;;;;;;2.33;1.80;;;;;;;;;;5025647;28;20492;-81
2023/05/17 07:08:14;;;;;;;2.70;1.77;;;;;;;;;;5025408;28;20030;-81
2023/05/17 07:10:39;;;;;;;3.47;1.80;;;;;;;;;;5025906;28;20030;-81
2023/05/17 07:13:04;;;;;;;2.80;2.10;;;;;;;;;;5027478;28;20107;-81
2023/05/17 07:15:30;;;;;;;4.85;2.22;;;;;;;;;;5025715;28;20034;-81
2023/05/17 07:17:55;;;;;;;5.25;2.00;;;;;;;;;;5027352;28;20540;-81
2023/05/17 07:20:20;;;;;;;4.35;1.90;;;;;;;;;;5026200;28;20037;-81
2023/05/17 07:22:47;;;;;;;5.32;2.30;;;;;;;;;;5025631;28;20044;-81
2023/05/17 07:25:13;;;;;;;4.30;1.75;;;;;;;;;;5025599;28;20113;-81
2023/05/17 07:27:39;;;;;;;5.80;1.67;;;;;;;;;;5026499;28;20095;-81
2023/05/17 07:30:06;;;;;;;3.42;2.08;;;;;;;;;;5028224;28;20477;-81
2023/05/17 07:32:31;;;;;;;4.15;1.63;;;;;;;;;;5027941;28;20034;-81
2023/05/17 07:34:56;;;;;;;5.00;1.88;;;;;;;;;;5034952;28;20404;-81
2023/05/17 07:37:22;;;;;;;6.95;1.83;;;;;;;;;;5026552;28;20038;-81
2023/05/17 07:39:47;;;;;;;8.85;2.03;;;;;;;;;;5025891;28;20034;-81
2023/05/17 07:42:12;;;;;;;2.95;1.92;;;;;;;;;;5027584;28;20113;-81
2023/05/17 07:44:37;;;;;;;7.05;2.22;;;;;;;;;;5028296;28;20034;-81
2023/05/17 07:47:03;;;;;;;5.97;2.40;;;;;;;;;;5025198;28;20037;-81
2023/05/17 07:49:29;;;;;;;20.42;2.70;;;;;;;;;;5026220;28;20029;-81
2023/05/17 07:51:55;;;;;;;6.63;2.17;;;;;;;;;;5041343;28;20085;-81
2023/05/17 07:54:26;;;;;;;4.25;1.92;;;;;;;;;;5026032;28;20041;-82
2023/05/17 07:56:53;;;;;;;4.03;2.00;;;;;;;;;;5027468;28;20052;-79
2023/05/17 07:59:20;;;;;;;2.72;1.80;;;;;;;;;;5026142;28;20098;-81
2023/05/17 08:01:45;;;;;;;8.38;1.95;;;;;;;;;;5025378;28;20091;-81
2023/05/17 08:04:10;;;;;;;3.85;1.63;;;;;;;;;;5025976;28;20029;-80
2023/05/17 08:06:35;;;;;;;6.25;1.80;;;;;;;;;;5026501;28;20109;-81
2023/05/17 08:09:01;;;;;;;9.02;2.85;;;;;;;;;;5025968;28;20613;-81
2023/05/17 08:11:27;;;;;;;6.22;1.85;;;;;;;;;;5026143;28;20029;-81
2023/05/17 08:13:52;;;;;;;3.15;1.83;;;;;;;;;;5024309;28;20043;-78
2023/05/17 08:16:17;;;;;;;7.00;2.17;;;;;;;;;;5023131;28;20030;-81
2023/05/17 08:18:43;;;;;;;6.05;1.85;;;;;;;;;;5025126;28;20227;-79
2023/05/17 08:21:08;;;;;;;4.72;1.73;;;;;;;;;;5027050;28;20075;-81
2023/05/17 08:23:33;;;;;;;4.22;1.65;;;;;;;;;;5026499;28;20496;-81
2023/05/17 08:25:59;;;;;;;2.15;1.52;;;;;;;;;;5024991;28;20105;-81
2023/05/17 08:28:24;;;;;;;2.30;1.45;;;;;;;;;;5025207;28;20034;-81
2023/05/17 08:30:49;;;;;;;4.53;1.98;;;;;;;;;;5024743;28;20030;-82
2023/05/17 08:33:15;;;;;;;4.03;1.90;;;;;;;;;;5026176;28;20500;-81
2023/05/17 08:35:40;;;;;;;8.98;1.77;;;;;;;;;;5024828;28;20037;-79
2023/05/17 08:38:05;;;;;;;2.50;1.83;;;;;;;;;;5025207;28;20076;-79
2023/05/17 08:40:31;;;;;;;7.55;2.75;;;;;;;;;;5025488;28;20098;-79
2023/05/17 08:42:57;;;;;;;4.50;1.88;;;;;;;;;;5022980;28;20077;-80
2023/05/17 08:45:24;;;;;;;2.78;2.00;;;;;;;;;;5025058;28;20116;-79
2023/05/17 08:47:49;;;;;;;4.88;1.80;;;;;;;;;;5025331;28;20203;-79
2023/05/17 08:50:16;;;;;;;3.30;1.80;;;;;;;;;;5024305;28;20068;-79
2023/05/17 08:52:45;;;;;;;10.82;2.45;;;;;;;;;;5023611;28;20141;-80
2023/05/17 08:55:10;;;;;;;6.70;1.98;;;;;;;;;;5039836;28;20032;-79
2023/05/17 08:57:37;;;;;;;2.47;1.65;;;;;;;;;;5026700;28;20037;-80
2023/05/17 09:00:11;;;;;;;3.92;1.80;;;;;;;;;;5022517;28;20488;-79
2023/05/17 09:02:37;;;;;;;5.43;2.42;;;;;;;;;;5039359;28;20025;-80
2023/05/17 09:05:04;;;;;;;9.05;2.10;;;;;;;;;;5021726;28;20376;-80
2023/05/17 09:07:29;;;;;;;5.57;2.10;;;;;;;;;;5025054;28;20037;-79
2023/05/17 09:09:55;;;;;;;5.22;2.10;;;;;;;;;;5022873;28;20068;-79
2023/05/17 09:12:20;;;;;;;7.55;1.98;;;;;;;;;;5023333;28;20056;-79
2023/05/17 09:14:46;;;;;;;5.63;1.95;;;;;;;;;;5022989;28;20029;-79
2023/05/17 09:17:20;;;;;;;4.85;2.00;;;;;;;;;;5025415;28;20042;-80
2023/05/17 09:19:47;;;;;;;4.00;1.65;;;;;;;;;;5023327;28;20062;-80
2023/05/17 09:22:14;;;;;;;2.63;1.92;;;;;;;;;;5024626;28;20038;-80
2023/05/17 09:24:41;;;;;;;8.60;1.80;;;;;;;;;;5022246;28;20029;-80
2023/05/17 09:27:06;;;;;;;6.07;2.03;;;;;;;;;;5022910;28;20040;-80
2023/05/17 09:29:32;;;;;;;4.47;2.05;;;;;;;;;;5024943;28;20025;-80
2023/05/17 09:32:19;;;;;;;4.90;2.10;;;;;;;;;;5023317;28;20029;-80
2023/05/17 09:34:45;;;;;;;4.55;2.05;;;;;;;;;;5029864;28;20038;-80
2023/05/17 09:37:13;;;;;;;5.07;1.90;;;;;;;;;;5055426;28;20120;-80
2023/05/17 09:39:38;;;;;;;5.28;2.20;;;;;;;;;;5024363;28;20029;-80
2023/05/17 09:42:04;;;;;;;6.75;2.20;;;;;;;;;;5023667;28;20024;-80
2023/05/17 09:44:29;;;;;;;7.40;1.60;;;;;;;;;;5020637;28;20021;-80
2023/05/17 09:46:56;;;;;;;4.75;2.17;;;;;;;;;;5023604;28;20542;-80
2023/05/17 09:49:26;;;;;;;5.28;1.77;;;;;;;;;;5023428;28;20041;-80
2023/05/17 09:51:52;;;;;;;4.32;2.35;;;;;;;;;;5022329;28;20125;-80
2023/05/17 09:54:18;;;;;;;11.80;2.13;;;;;;;;;;5024607;28;20508;-80
2023/05/17 09:56:43;;;;;;;2.70;1.80;;;;;;;;;;5024636;28;20017;-80
2023/05/17 09:59:13;;;;;;;11.45;2.30;;;;;;;;;;5020329;28;20041;-80
2023/05/17 10:01:40;;;;;;;8.98;2.00;;;;;;;;;;5023746;28;20049;-80
2023/05/17 10:04:08;;;;;;;5.30;2.92;;;;;;;;;;5026655;28;20045;-80
2023/05/17 10:06:37;;;;;;;4.13;1.98;;;;;;;;;;5024324;28;20037;-80
2023/05/17 10:09:05;;;;;;;10.52;2.25;;;;;;;;;;5036992;28;20029;-80
2023/05/17 10:11:33;;;;;;;5.00;1.50;;;;;;;;;;5031526;28;20025;-80
2023/05/17 10:14:22;;;;;;;9.15;2.38;;;;;;;;;;5025718;28;20531;-80
2023/05/17 10:16:49;;;;;;;3.10;1.73;;;;;;;;;;5024748;28;20041;-80
2023/05/17 10:19:18;;;;;;;1.92;1.70;;;;;;;;;;5055816;28;20026;-80
2023/05/17 10:21:44;;;;;;;4.10;1.85;;;;;;;;;;5024722;28;20094;-80
2023/05/17 10:24:10;;;;;;;5.75;2.10;;;;;;;;;;5024785;28;20045;-80
2023/05/17 10:26:37;;;;;;;3.58;1.80;;;;;;;;;;5025807;28;20104;-81
2023/05/17 10:29:04;;;;;;;4.10;1.77;;;;;;;;;;5025034;28;20105;-80
2023/05/17 10:31:32;;;;;;;5.18;1.60;;;;;;;;;;5023332;28;20484;-80
2023/05/17 10:34:01;;;;;;;4.85;1.45;;;;;;;;;;5023505;28;20034;-80
2023/05/17 10:36:27;;;;;;;3.88;1.85;;;;;;;;;;5025101;28;20037;-80
2023/05/17 10:38:54;;;;;;;3.20;1.92;;;;;;;;;;5022783;28;20056;-80
2023/05/17 10:41:22;;;;;;;4.53;1.92;;;;;;;;;;5023143;28;20034;-81
2023/05/17 10:43:49;;;;;;;3.58;2.25;;;;;;;;;;5024313;28;20555;-79
2023/05/17 10:46:18;;;;;;;6.60;1.75;;;;;;;;;;5030664;28;20037;-80
2023/05/17 10:48:46;;;;;;;7.47;2.42;;;;;;;;;;5023627;28;20124;-80
2023/05/17 10:51:12;;;;;;;4.07;1.73;;;;;;;;;;5023443;28;20048;-79
2023/05/17 10:54:10;;;;;;;4.68;1.67;;;;;;;;;;5026346;28;20035;-80
2023/05/17 10:56:39;;;;;;;4.82;2.15;;;;;;;;;;5030815;28;20061;-80
2023/05/17 10:59:25;;;;;;;5.25;1.83;;;;;;;;;;5038946;28;20480;-80
2023/05/17 11:01:53;;;;;;;5.43;2.05;;;;;;;;;;5046278;28;20050;-80
2023/05/17 11:04:24;;;;;;;4.70;2.00;;;;;;;;;;5045172;28;20090;-79
2023/05/17 11:06:51;;;;;;;7.20;1.75;;;;;;;;;;5045174;28;20045;-79
2023/05/17 11:09:17;;;;;;;1.55;1.30;;;;;;;;;;5038693;28;20022;-79
2023/05/17 11:12:05;;;;;;;6.35;1.67;;;;;;;;;;5040122;28;20044;-80
2023/05/17 11:14:53;;;;;;;3.17;1.80;;;;;;;;;;5038715;28;20056;-78
2023/05/17 11:17:20;;;;;;;9.55;2.20;;;;;;;;;;5038981;28;20042;-79
2023/05/17 11:20:00;;;;;;;2.78;1.65;;;;;;;;;;5054495;28;20038;-80
2023/05/17 11:22:27;;;;;;;7.05;2.10;;;;;;;;;;5061470;28;20114;-81
2023/05/17 11:24:55;;;;;;;3.92;1.90;;;;;;;;;;5042596;28;20133;-81
2023/05/17 11:27:26;;;;;;;5.07;2.60;;;;;;;;;;5052197;28;20029;-81
2023/05/17 11:29:53;;;;;;;2.03;1.40;;;;;;;;;;5038111;28;20052;-80
2023/05/17 11:32:26;;;;;;;8.98;1.60;;;;;;;;;;5030466;28;20029;-81
2023/05/17 11:34:51;;;;;;;3.45;1.92;;;;;;;;;;5040984;28;20180;-81
2023/05/17 11:37:26;;;;;;;7.63;2.10;;;;;;;;;;5027622;28;20069;-81
2023/05/17 11:40:05;;;;;;;4.22;1.58;;;;;;;;;;5060180;28;20495;-81
2023/05/17 11:42:31;;;;;;;3.10;1.60;;;;;;;;;;5027931;28;20152;-83
2023/05/17 11:44:59;;;;;;;3.85;1.60;;;;;;;;;;5029493;28;20044;-82
2023/05/17 11:47:26;;;;;;;4.38;1.80;;;;;;;;;;5044214;28;20045;-80
2023/05/17 11:49:53;;;;;;;5.47;1.60;;;;;;;;;;5040627;28;20052;-82
2023/05/17 11:52:18;;;;;;;3.03;1.50;;;;;;;;;;5028685;28;20042;-82
2023/05/17 11:54:45;;;;;;;7.75;2.10;;;;;;;;;;5024379;28;20826;-82
2023/05/17 11:57:14;;;;;;;3.47;1.60;;;;;;;;;;5028564;28;20764;-82
2023/05/17 11:59:39;;;;;;;4.18;1.60;;;;;;;;;;5028499;28;20434;-80
2023/05/17 12:02:05;;;;;;;3.03;1.67;;;;;;;;;;5029217;28;20030;-81
2023/05/17 12:04:37;;;;;;;2.83;1.38;;;;;;;;;;5026850;28;20120;-81
2023/05/17 12:07:02;;;;;;;2.30;1.40;;;;;;;;;;5028284;28;20450;-81
2023/05/17 12:09:28;;;;;;;4.47;1.70;;;;;;;;;;5028679;28;20041;-80
2023/05/17 12:11:55;;;;;;;6.10;1.83;;;;;;;;;;5028095;28;20025;-81
2023/05/17 12:14:20;;;;;;;3.08;1.77;;;;;;;;;;5027149;28;20045;-81
2023/05/17 12:16:52;;;;;;;2.53;1.40;;;;;;;;;;5030971;28;20029;-82
2023/05/17 12:19:22;;;;;;;3.88;1.73;;;;;;;;;;5046089;28;20065;-81
2023/05/17 12:21:48;;;;;;;4.25;1.55;;;;;;;;;;5031329;28;20030;-83
2023/05/17 12:24:13;;;;;;;2.70;1.52;;;;;;;;;;5029290;28;20037;-82
2023/05/17 12:26:43;;;;;;;3.35;1.70;;;;;;;;;;5031555;28;20037;-82
2023/05/17 12:29:09;;;;;;;3.47;1.60;;;;;;;;;;5031547;28;20076;-82
2023/05/17 12:31:45;;;;;;;5.90;1.90;;;;;;;;;;5029435;28;20042;-83
2023/05/17 12:34:15;;;;;;;4.28;1.73;;;;;;;;;;5031518;28;20046;-83
2023/05/17 12:36:41;;;;;;;3.88;1.70;;;;;;;;;;5031877;28;20036;-82
2023/05/17 12:39:09;;;;;;;4.28;1.60;;;;;;;;;;5028844;28;20029;-82
2023/05/17 12:41:37;;;;;;;3.80;1.40;;;;;;;;;;5028824;28;20036;-82
2023/05/17 12:44:03;;;;;;;4.82;1.83;;;;;;;;;;5028337;28;20045;-82
2023/05/17 12:46:28;;;;;;;2.92;1.70;;;;;;;;;;5030498;28;20045;-82
2023/05/17 12:48:54;;;;;;;3.22;1.73;;;;;;;;;;5028414;28;20107;-82
2023/05/17 12:51:22;;;;;;;3.97;1.60;;;;;;;;;;5043532;28;20116;-83
2023/05/17 12:53:49;;;;;;;2.47;1.27;;;;;;;;;;5046063;28;20061;-82
2023/05/17 12:56:16;;;;;;;2.72;1.40;;;;;;;;;;5028388;28;20030;-82
2023/05/17 12:58:42;;;;;;;7.65;2.10;;;;;;;;;;5029968;28;20515;-82
2023/05/17 13:01:12;;;;;;;4.20;1.67;;;;;;;;;;5029864;28;20036;-82
2023/05/17 13:03:37;;;;;;;4.80;1.80;;;;;;;;;;5029127;28;20029;-82
2023/05/17 13:06:06;;;;;;;4.78;1.55;;;;;;;;;;5028932;28;20089;-82
2023/05/17 13:08:33;;;;;;;3.97;1.80;;;;;;;;;;5029783;28;20034;-82
2023/05/17 13:11:09;;;;;;;3.08;1.50;;;;;;;;;;5028839;28;20099;-82
2023/05/17 13:13:34;;;;;;;2.17;1.50;;;;;;;;;;5033422;28;20041;-82
2023/05/17 13:16:00;;;;;;;6.13;1.80;;;;;;;;;;5027895;28;20030;-82
2023/05/17 13:18:25;;;;;;;5.05;2.00;;;;;;;;;;5030691;28;20059;-82
2023/05/17 13:20:51;;;;;;;1.77;1.42;;;;;;;;;;5029664;28;20026;-82
2023/05/17 13:23:16;;;;;;;2.60;1.50;;;;;;;;;;5027785;28;20040;-82
2023/05/17 13:25:41;;;;;;;6.25;1.55;;;;;;;;;;5027786;28;20033;-82
2023/05/17 13:28:07;;;;;;;6.57;1.83;;;;;;;;;;5026893;28;20064;-82
2023/05/17 13:30:32;;;;;;;4.85;1.40;;;;;;;;;;5027814;28;20060;-82
2023/05/17 13:32:57;;;;;;;5.97;2.28;;;;;;;;;;5029204;28;20467;-82
2023/05/17 13:35:23;;;;;;;8.43;1.65;;;;;;;;;;5033317;28;20033;-82
2023/05/17 13:37:48;;;;;;;7.75;1.70;;;;;;;;;;5030121;28;20534;-82
2023/05/17 13:40:14;;;;;;;2.28;1.73;;;;;;;;;;5030582;28;20029;-82
2023/05/17 13:42:39;;;;;;;3.63;1.58;;;;;;;;;;5027941;28;20484;-82
2023/05/17 13:45:07;;;;;;;4.32;2.17;;;;;;;;;;5030322;28;20036;-82
2023/05/17 13:47:33;;;;;;;3.63;1.42;;;;;;;;;;5033264;28;20072;-82
2023/05/17 13:49:59;;;;;;;2.67;1.58;;;;;;;;;;5032605;28;20026;-82
2023/05/17 13:52:25;;;;;;;4.93;1.77;;;;;;;;;;5045602;28;20676;-83
2023/05/17 13:54:50;;;;;;;4.65;2.13;;;;;;;;;;5033929;28;20034;-82
2023/05/17 13:57:16;;;;;;;1.48;1.30;;;;;;;;;;5031000;28;20040;-82
2023/05/17 13:59:42;;;;;;;2.05;1.30;;;;;;;;;;5037156;28;20175;-82
2023/05/17 14:02:08;;;;;;;3.45;1.60;;;;;;;;;;5031846;28;20516;-82
2023/05/17 14:04:33;;;;;;;3.08;1.70;;;;;;;;;;5031036;28;20034;-82
2023/05/17 14:07:00;;;;;;;5.45;1.67;;;;;;;;;;5029545;28;20041;-82
2023/05/17 14:09:25;;;;;;;1.65;1.33;;;;;;;;;;5041135;28;20041;-82
2023/05/17 14:11:51;;;;;;;3.65;1.60;;;;;;;;;;5028260;28;20021;-82
2023/05/17 14:14:16;;;;;;;4.28;1.83;;;;;;;;;;5034741;28;20064;-82
2023/05/17 14:16:41;;;;;;;4.20;1.70;;;;;;;;;;5030391;28;20033;-82
2023/05/17 14:19:07;;;;;;;8.90;2.30;;;;;;;;;;5028141;28;20042;-82
2023/05/17 14:21:32;;;;;;;4.13;1.80;;;;;;;;;;5028389;28;21631;-82
2023/05/17 14:23:57;;;;;;;3.20;1.80;;;;;;;;;;5026507;28;20025;-82
2023/05/17 14:26:22;;;;;;;9.00;1.85;;;;;;;;;;5026601;28;20037;-82
2023/05/17 14:28:48;;;;;;;3.35;1.50;;;;;;;;;;5028220;28;20029;-82
2023/05/17 14:31:13;;;;;;;5.45;1.95;;;;;;;;;;5030366;28;20045;-82
2023/05/17 14:33:38;;;;;;;4.68;2.00;;;;;;;;;;5030087;28;20045;-83
2023/05/17 14:36:04;;;;;;;3.03;1.65;;;;;;;;;;5029146;28;20025;-82
2023/05/17 14:38:29;;;;;;;2.03;1.70;;;;;;;;;;5031496;28;20029;-82